Badger Spring Valley, Nevada Weather observations

Data are for 10 minute period ending at time listed.
 Day   Time   Solar   Ave.   Ave.  Ave.  Vector  Max.   Baro.   Total    
  of    of     Rad.   Air    Rel.  Wind   Wind   Wind  Press.  Precip.   
Year   Day            Temp.  Hum.  Speed  Dir.   Gust                    
2017   (PST)  Kw/m2    F      %     mph   deg.    mph    mb.     in.     
-------------------------------------------------------------------------
 175    1:20   0.00   78.1    11   19.6   348    27.0   833.1    0.00 
 175    1:30   0.00   78.2    11   20.4   346    29.7   833.1    0.00 
 175    1:40   0.00   78.0    11   20.4   346    29.0   833.0    0.00 
 175    1:50   0.00   77.9    11   20.5   346    30.0   833.0    0.00 
 175    2:00   0.00   77.6    11   17.7   347    26.9   833.1    0.00 
 175    2:10   0.00   77.4    11   20.1   346    27.9   833.1    0.00 
 175    2:20   0.00   77.4    11   21.2   346    29.6   833.1    0.00 
 175    2:30   0.00   77.2    11   18.9   347    27.4   833.1    0.00 
 175    2:40   0.00   77.0    11   18.5   347    32.2   833.1    0.00 
 175    2:50   0.00   76.7    11   18.7   345    27.4   833.2    0.00 
 175    3:00   0.00   76.1    11   15.3   346    27.0   833.3    0.00 
 175    3:10   0.00   76.1    11   15.6   341    25.0   833.3    0.00 
 175    3:20   0.00   76.0    11   17.7   345    28.1   833.4    0.00 
 175    3:30   0.00   75.8    11   16.8   345    25.7   833.5    0.00 
 175    3:40   0.00   75.8    11   19.0   346    27.0   833.5    0.00 
 175    3:50   0.00   75.7    11   18.0   347    26.7   833.6    0.00 
 175    4:00   0.00   75.9    11   18.6   348    28.7   833.6    0.00 
 175    4:10   0.00   75.8    11   18.7   346    29.3   833.6    0.00 
 175    4:20   0.00   75.8    11   19.9   345    28.9   833.7    0.00 
 175    4:30   0.01   75.7    11   20.8   348    28.1   833.8    0.00 
 175    4:40   0.01   75.6    11   19.3   349    29.5   833.8    0.00 
 175    4:50   0.02   75.7    11   20.5   347    28.1   833.9    0.00 
 175    5:00   0.07   76.1    11   20.6   347    29.2   834.0    0.00 
 175    5:10   0.10   76.4    11   21.3   345    30.0   834.0    0.00 
 175    5:20   0.13   76.7    11   21.6   345    29.7   834.1    0.00 
 175    5:30   0.16   77.0    11   20.6   350    29.1   834.2    0.00 
 175    5:40   0.19   77.2    11   18.2   351    26.1   834.3    0.00 
 175    5:50   0.23   77.6    11   18.2   352    24.1   834.3    0.00 
 175    6:00   0.26   78.1    11   18.0   356    25.1   834.3    0.00 
 175    6:10   0.30   78.3    11   21.6   358    29.7   834.4    0.00 
 175    6:20   0.34   78.4    11   21.5   358    28.3   834.4    0.00 
 175    6:30   0.38   78.7    11   21.0   358    29.4   834.4    0.00 
 175    6:40   0.42   78.7    10   20.8   358    30.9   834.5    0.00 
 175    6:50   0.46   78.9    10   20.5     1    28.6   834.6    0.00 
 175    7:00   0.50   79.6    10   19.3   360    27.0   834.6    0.00 
 175    7:10   0.54   79.8    10   22.1   360    29.1   834.6    0.00 
 175    7:20   0.57   80.0    10   21.8     1    28.4   834.6    0.00 
 175    7:30   0.61   80.4    10   19.6   359    27.0   834.6    0.00 
 175    7:40   0.65   80.8    10   19.9   359    28.0   834.5    0.00 
 175    7:50   0.69   81.4    10   19.5   356    28.4   834.5    0.00 
 175    8:00   0.72   82.0    10   19.6   356    28.6   834.5    0.00 
 175    8:10   0.76   82.1    10   20.3   358    29.4   834.4    0.00 
 175    8:20   0.79   82.8    10   22.1   358    28.9   834.4    0.00 
 175    8:30   0.82   83.0    10   21.1     0    27.4   834.4    0.00 
 175    8:40   0.86   83.4     9   19.9   358    28.9   834.4    0.00 
 175    8:50   0.89   84.3     9   18.9   359    27.9   834.4    0.00 
 175    9:00   0.92   84.4     9   20.0   358    24.8   834.4    0.00 
 175    9:10   0.95   84.8     9   19.2   356    25.8   834.4    0.00 
 175    9:20   0.97   85.5     9   18.0   354    24.0   834.4    0.00 
 175    9:30   1.00   86.3     9   15.3   352    22.0   834.4    0.00 
 175    9:40   1.02   86.3     8   16.3   356    22.6   834.4    0.00 
 175    9:50   1.05   87.1     8   15.9     0    22.6   834.4    0.00 
 175   10:00   1.07   87.5     8   12.3     2    20.6   834.3    0.00 
 175   10:10   1.09   88.1     8   11.9   356    21.4   834.3    0.00 
 175   10:20   1.11   88.5     8   12.8   350    19.2   834.3    0.00 
 175   10:30   1.12   89.2     8   11.2   357    18.0   834.3    0.00 
 175   10:40   1.14   89.0     8    8.9    20    17.8   834.3    0.00 
 175   10:50   1.15   89.7     8   10.0    24    16.4   834.2    0.00 
 175   11:00   1.16   89.9     8   10.1     9    16.4   834.1    0.00 
 175   11:10   1.17   90.2     8    7.7   352    16.1   834.0    0.00 
 175   11:20   1.18   90.6     8   10.3     6    16.1   833.9    0.00 
 175   11:30   1.18   91.8     8   10.9   357    20.6   833.7    0.00 
 175   11:40   1.19   92.0     8    7.5    26    15.7   833.6    0.00 
 175   11:50   1.19   93.0     8    8.2    30    15.6   833.5    0.00 
 175   12:00   1.19   93.7     8   10.4    33    17.5   833.4    0.00 
 175   12:10   1.18   93.4     8    9.1    31    19.8   833.3    0.00 
 175   12:20   1.13   93.4     8   11.0    33    18.5   833.2    0.00 
 175   12:30   1.17   93.8     8    7.1    22    14.7   833.1    0.00 
 175   12:40   1.17   94.4     8    9.1    17    17.7   832.9    0.00 
 175   12:50   1.15   94.9     8    7.8     2    17.0   832.8    0.00 
 175   13:00   1.14   94.7     8    7.8     3    14.7   832.6    0.00 
 175   13:10   1.12   95.0     8    6.9    22    16.4   832.5    0.00 
 175   13:20   1.01   95.9     7    9.1    54    18.0   832.4    0.00 
 175   13:30   1.10   96.7     7    7.4   297    15.0   832.6    0.00 
 175   13:40   1.08   96.5     7    9.7   256    16.6   832.5    0.00 
 175   13:50   1.07   96.2     8    6.8   280    16.5   832.4    0.00 
 175   14:00   0.60   94.8     8    5.7   338    17.0   832.3    0.00 
 175   14:10   1.05   95.2     8    2.9    75     7.4   832.1    0.00 
 175   14:20   0.98   97.2     7    4.4   143    10.9   832.0    0.00 
 175   14:30   0.57   95.8     7    7.6   124    14.7   831.9    0.00 
 175   14:40   0.76   95.8     8    7.5   127    15.5   831.8    0.00 
 175   14:50   1.05   97.5     7   10.2   123    17.8   831.6    0.00 
 175   15:00   1.01   98.2     7    9.8    84    19.0   831.6    0.00 
 175   15:10   0.75   96.6     7    7.4    69    12.4   831.7    0.00 
 175   15:20   0.81   96.4     7    5.9    75    12.7   831.6    0.00 
 175   15:30   0.88   97.1     7    7.1    78    12.2   831.5    0.00 
 175   15:40   0.84   97.1     7    4.0    20     7.8   831.4    0.00 
 175   15:50   0.75   97.8     7    3.7   272    12.3   831.4    0.00 
 175   16:00   0.52   96.8     7    6.5   131    14.0   831.3    0.00 
 175   16:10   0.56   96.0     8    6.7    87    11.1   831.2    0.00 
 175   16:20   0.32   95.3     8    4.8    67    12.7   831.0    0.00 
 175   16:30   0.29   94.3     8    7.2    79    12.6   830.9    0.00 
 175   16:40   0.50   94.5     8    5.9    56     9.5   830.9    0.00 
 175   16:50   0.51   95.2     8    6.0    41    10.1   830.8    0.00 
 175   17:00   0.48   94.8     8    7.4    51    12.6   830.8    0.00 
 175   17:10   0.46   95.4     8    7.2    98    13.1   830.8    0.00 
 175   17:20   0.25   94.9     8    5.9    99    11.5   830.8    0.00 
 175   17:30   0.35   94.7     8    4.5   108     7.5   830.8    0.00 
 175   17:40   0.24   94.1     8    7.5    78    10.7   830.8    0.00 
 175   17:50   0.25   94.0     8    6.7    75    10.0   830.9    0.00 
 175   18:00   0.18   93.5     8    6.7    68     9.5   830.9    0.00 
 175   18:10   0.11   92.7     8    5.9    75     8.8   830.9    0.00 
 175   18:20   0.05   91.5     8    5.4    93     7.6   831.0    0.00 
 175   18:30   0.05   90.6     9    3.3    78     5.3   831.2    0.00 
 175   18:40   0.03   89.7     9    3.1    74     4.5   831.2    0.00 
 175   18:50   0.01   89.1     9    2.3    52     3.1   831.3    0.00 
 175   19:00   0.01   87.6     9    1.6   345     2.9   831.4    0.00 
 175   19:10   0.00   86.1    10    3.0   303     4.2   831.4    0.00 
 175   19:20   0.00   84.9    10    7.7   289    11.5   831.5    0.00 
 175   19:30   0.00   83.7    11    9.4   292    11.0   831.5    0.00 
 175   19:40   0.00   85.0    10    7.7   289     8.6   831.5    0.00 
 175   19:50   0.00   84.7    10    9.4   287    11.5   831.6    0.00 
 175   20:00   0.00   83.8    10   11.2   290    13.3   831.6    0.00 
 175   20:10   0.00   84.0    11   10.2   291    12.1   831.8    0.00 
 175   20:20   0.00   84.3    11    9.0   290    11.2   831.8    0.00 
 175   20:30   0.00   83.8    11    9.9   290    14.2   831.8    0.00 
 175   20:40   0.00   83.1    12   10.2   293    12.8   831.9    0.00 
 175   20:50   0.00   83.6    12   10.0   294    13.0   831.9    0.00 
 175   21:00   0.00   83.1    12   10.0   296    11.8   832.0    0.00 
 175   21:10   0.00   83.1    12   10.3   296    12.4   832.0    0.00 
 175   21:20   0.00   83.5    12   10.0   295    12.0   832.0    0.00 
 175   21:30   0.00   83.6    12    9.7   300    12.1   832.0    0.00 
 175   21:40   0.00   83.6    12    7.9   333    14.8   832.1    0.00 
 175   21:50   0.00   85.2    10    5.9    49    12.1   832.3    0.00 
 175   22:00   0.00   84.5     9    8.8    54    12.3   832.3    0.00 
 175   22:10   0.00   83.9     9    6.3    44    11.5   832.5    0.00 
 175   22:20   0.00   83.4     9    4.8    34    10.2   832.6    0.00 
 175   22:30   0.00   83.5     9    6.8     8    10.9   832.8    0.00 
 175   22:40   0.00   83.7     9    2.9   332     7.0   833.0    0.00 
 175   22:50   0.00   83.2     9    3.4    36     6.1   832.9    0.00 
 175   23:00   0.00   81.6    10    5.8   323     9.1   832.9    0.00 
 175   23:10   0.00   82.4     9    8.1     0    10.9   832.8    0.00 
 175   23:20   0.00   83.8     9    8.4    13    14.1   832.7    0.00 
 175   23:30   0.00   83.3    10    5.0   301    11.2   832.8    0.00 
 175   23:40   0.00   81.6    10   10.4   293    14.1   833.0    0.00 
 175   23:50   0.00   82.9    10   10.6   322    19.6   833.0    0.00 
 176    0:00   0.00   84.5    11   15.2   315    22.8   832.9    0.00 
 176    0:10   0.00   84.3    11   15.5   314    20.5   832.9    0.00 
 176    0:20   0.00   83.9    11   15.6   312    20.6   832.8    0.00 
 176    0:30   0.00   83.9    11   16.3   322    25.3   832.8    0.00 
 176    0:40   0.00   82.2    10   10.3    25    17.2   832.9    0.00 
 176    0:50   0.00   80.2    10   11.8    12    18.2   832.9    0.00 
 176    1:00   0.00   79.2    10   13.4   359    20.2   833.0    0.00 
 176    1:10   0.00   79.0    10   16.1   344    23.7   832.9    0.00 

Return to Badger Spring Valley graphs page.


Western Regional Climate Center,wrcc@dri.edu